createdAt,value
2018-03-20T00:02:06.660Z,19.90
2018-03-20T00:04:34.169Z,24.50
2018-03-20T00:07:01.687Z,28.37
2018-03-20T00:09:29.238Z,42.27
2018-03-20T00:11:56.765Z,30.03
2018-03-20T00:14:24.276Z,24.27
2018-03-20T00:16:51.809Z,23.03
2018-03-20T00:19:19.677Z,23.37
2018-03-20T00:21:47.181Z,23.53
2018-03-20T00:24:14.728Z,27.77
2018-03-20T00:26:42.254Z,22.67
2018-03-20T00:29:09.752Z,20.43
2018-03-20T00:31:37.345Z,25.57
2018-03-20T00:34:04.872Z,22.23
2018-03-20T00:36:32.398Z,24.00
2018-03-20T00:38:59.955Z,24.40
2018-03-20T00:41:27.721Z,24.60
2018-03-20T00:43:55.244Z,23.67
2018-03-20T00:46:22.778Z,22.47
2018-03-20T00:48:50.514Z,21.93
2018-03-20T00:51:18.038Z,21.00
2018-03-20T00:53:45.589Z,30.23
2018-03-20T00:56:13.100Z,21.30
2018-03-20T00:58:40.624Z,30.73
2018-03-20T01:01:08.167Z,20.43
2018-03-20T01:03:35.674Z,18.37
2018-03-20T01:06:03.167Z,23.00
2018-03-20T01:08:30.723Z,19.93
2018-03-20T01:10:58.548Z,24.30
2018-03-20T01:13:26.046Z,25.17
2018-03-20T01:15:53.666Z,21.50
2018-03-20T01:18:21.171Z,19.27
2018-03-20T01:20:48.709Z,23.50
2018-03-20T01:23:16.252Z,23.40
2018-03-20T01:25:43.880Z,23.23
2018-03-20T01:28:11.390Z,25.37
2018-03-20T01:30:38.984Z,24.73
2018-03-20T01:33:06.794Z,23.03
2018-03-20T01:35:34.314Z,22.23
2018-03-20T01:38:01.835Z,21.63
2018-03-20T01:40:29.357Z,21.17
2018-03-20T01:42:56.888Z,17.87
2018-03-20T01:45:24.721Z,20.50
2018-03-20T01:47:52.244Z,20.53
2018-03-20T01:50:19.801Z,23.40
2018-03-20T01:52:47.359Z,23.20
2018-03-20T01:55:14.926Z,19.13
2018-03-20T01:57:42.438Z,23.63
2018-03-20T02:00:10.025Z,23.47
2018-03-20T02:02:37.777Z,22.10
2018-03-20T02:05:05.306Z,20.07
2018-03-20T02:07:32.847Z,20.37
2018-03-20T02:10:00.661Z,17.17
2018-03-20T02:12:28.228Z,17.70
2018-03-20T02:14:55.777Z,17.63
2018-03-20T02:17:23.303Z,20.73
2018-03-20T02:19:50.809Z,21.97
2018-03-20T02:22:18.384Z,20.13
2018-03-20T02:24:45.879Z,20.17
2018-03-20T02:27:13.434Z,18.47
2018-03-20T02:29:42.948Z,18.30
2018-03-20T02:32:10.522Z,17.80
2018-03-20T02:34:38.247Z,17.20
2018-03-20T02:37:05.889Z,20.87
2018-03-20T02:39:33.586Z,23.67
2018-03-20T02:42:01.428Z,24.13
2018-03-20T02:44:29.520Z,17.57
2018-03-20T02:46:57.194Z,22.70
2018-03-20T02:49:24.733Z,16.20
2018-03-20T02:51:52.265Z,20.77
2018-03-20T02:54:19.789Z,15.37
2018-03-20T02:56:47.296Z,25.20
2018-03-20T02:59:15.062Z,25.93
2018-03-20T03:01:42.592Z,18.70
2018-03-20T03:04:10.203Z,20.13
2018-03-20T03:06:37.718Z,16.17
2018-03-20T03:09:05.297Z,19.90
2018-03-20T03:11:32.821Z,18.87
2018-03-20T03:14:00.954Z,19.53
2018-03-20T03:16:28.477Z,21.17
2018-03-20T03:18:56.024Z,27.73
2018-03-20T03:21:23.537Z,19.50
2018-03-20T03:23:51.069Z,19.40
2018-03-20T03:26:18.599Z,28.53
2018-03-20T03:28:46.117Z,20.73
2018-03-20T03:31:13.669Z,25.83
2018-03-20T03:33:41.204Z,21.63
2018-03-20T03:36:09.035Z,24.13
2018-03-20T03:38:36.802Z,17.30
2018-03-20T03:41:04.321Z,18.90
2018-03-20T03:43:31.882Z,20.97
2018-03-20T03:45:59.688Z,20.00
2018-03-20T03:48:27.212Z,18.17
2018-03-20T03:50:54.756Z,19.23
2018-03-20T03:53:22.279Z,20.63
2018-03-20T03:55:49.853Z,18.80
2018-03-20T03:58:17.430Z,21.37
2018-03-20T04:00:44.995Z,19.07
2018-03-20T04:03:12.550Z,24.10
2018-03-20T04:05:40.092Z,19.60
2018-03-20T04:08:07.942Z,19.60
2018-03-20T04:10:35.455Z,22.17
2018-03-20T04:13:03.267Z,24.43
2018-03-20T04:15:30.774Z,18.90
2018-03-20T04:17:58.613Z,22.53
2018-03-20T04:20:26.141Z,21.00
2018-03-20T04:22:53.657Z,17.50
2018-03-20T04:25:21.200Z,18.97
2018-03-20T04:27:48.710Z,20.47
2018-03-20T04:32:50.109Z,16.90
2018-03-20T04:35:17.643Z,17.57
2018-03-20T04:37:45.208Z,20.30
2018-03-20T04:40:12.998Z,20.17
2018-03-20T04:42:40.541Z,18.63
2018-03-20T04:45:08.082Z,18.07
2018-03-20T04:47:35.626Z,19.33
2018-03-20T04:50:03.163Z,17.37
2018-03-20T04:52:30.664Z,20.63
2018-03-20T04:54:58.219Z,18.63
2018-03-20T04:57:25.740Z,17.47
2018-03-20T04:59:53.238Z,18.60
2018-03-20T05:02:20.779Z,18.73
2018-03-20T05:04:48.600Z,20.13
2018-03-20T05:07:16.140Z,20.37
2018-03-20T05:09:43.681Z,17.13
2018-03-20T05:12:11.241Z,24.30
2018-03-20T05:14:38.764Z,27.60
2018-03-20T05:17:06.514Z,18.37
2018-03-20T05:19:49.848Z,20.47
2018-03-20T05:22:23.043Z,17.73
2018-03-20T05:24:50.594Z,21.00
2018-03-20T05:27:18.151Z,17.80
2018-03-20T05:29:45.661Z,19.63
2018-03-20T05:32:13.576Z,19.70
2018-03-20T05:34:41.093Z,18.70
2018-03-20T05:37:08.631Z,18.87
2018-03-20T05:39:36.191Z,18.57
2018-03-20T05:42:03.732Z,20.60
2018-03-20T05:44:31.310Z,20.63
2018-03-20T05:50:03.456Z,21.63
2018-03-20T05:52:30.979Z,17.20
2018-03-20T05:54:58.563Z,19.17
2018-03-20T05:57:26.097Z,19.23
2018-03-20T05:59:53.638Z,25.90
2018-03-20T06:02:21.305Z,16.93
2018-03-20T06:04:48.813Z,24.50
2018-03-20T06:07:16.332Z,17.83
2018-03-20T06:09:43.858Z,22.60
2018-03-20T06:12:11.367Z,17.80
2018-03-20T06:14:38.948Z,19.33
2018-03-20T06:17:06.467Z,20.63
2018-03-20T06:19:34.216Z,18.53
2018-03-20T06:22:01.751Z,20.53
2018-03-20T06:24:29.639Z,19.43
2018-03-20T06:26:57.211Z,23.37
2018-03-20T06:29:24.757Z,22.00
2018-03-20T06:31:52.508Z,23.13
2018-03-20T06:34:20.065Z,17.70
2018-03-20T06:36:47.597Z,22.93
2018-03-20T06:39:15.736Z,15.90
2018-03-20T06:41:43.262Z,19.40
2018-03-20T06:44:10.885Z,17.63
2018-03-20T06:46:38.399Z,29.97
2018-03-20T06:49:05.927Z,17.97
2018-03-20T06:51:33.454Z,23.07
2018-03-20T06:54:01.027Z,19.80
2018-03-20T06:56:28.617Z,24.63
2018-03-20T06:58:56.203Z,31.93
2018-03-20T07:01:23.761Z,16.80
2018-03-20T07:03:51.321Z,19.77
2018-03-20T07:06:18.853Z,18.77
2018-03-20T07:08:46.417Z,22.40
2018-03-20T07:11:13.971Z,20.07
2018-03-20T07:13:41.541Z,29.00
2018-03-20T07:16:09.439Z,24.23
2018-03-20T07:18:36.958Z,15.53
2018-03-20T07:21:04.574Z,25.37
2018-03-20T07:23:32.122Z,25.97
2018-03-20T07:25:59.693Z,18.73
2018-03-20T07:28:27.360Z,21.60
2018-03-20T07:30:54.878Z,19.23
2018-03-20T07:33:22.565Z,22.60
2018-03-20T07:35:50.110Z,28.80
2018-03-20T07:38:17.693Z,19.70
2018-03-20T07:40:45.264Z,20.30
2018-03-20T07:43:12.808Z,26.50
2018-03-20T07:45:40.375Z,20.73
2018-03-20T07:48:07.953Z,18.90
2018-03-20T07:50:35.471Z,19.07
2018-03-20T07:53:03.038Z,18.83
2018-03-20T07:55:30.565Z,25.83
2018-03-20T07:57:58.119Z,24.27
2018-03-20T08:00:25.687Z,21.80
2018-03-20T08:02:53.241Z,22.13
2018-03-20T08:05:20.851Z,29.87
2018-03-20T08:07:48.447Z,20.50
2018-03-20T08:10:16.033Z,22.00
2018-03-20T08:12:43.567Z,23.50
2018-03-20T08:15:11.136Z,21.77
2018-03-20T08:17:38.702Z,28.07
2018-03-20T08:20:06.230Z,21.00
2018-03-20T08:22:33.760Z,24.43
2018-03-20T08:25:01.608Z,19.87
2018-03-20T08:27:29.191Z,21.70
2018-03-20T08:30:03.893Z,21.77
2018-03-20T08:32:31.485Z,22.60
2018-03-20T08:34:59.066Z,26.60
2018-03-20T08:37:28.287Z,26.07
2018-03-20T08:40:03.126Z,28.20
2018-03-20T08:42:37.019Z,26.93
2018-03-20T08:45:04.996Z,22.83
2018-03-20T08:47:32.706Z,24.70
2018-03-20T08:50:00.256Z,29.63
2018-03-20T08:52:27.812Z,22.80
2018-03-20T08:54:55.333Z,25.83
2018-03-20T08:57:27.350Z,23.23
2018-03-20T08:59:54.866Z,24.50
2018-03-20T09:02:22.409Z,24.90
2018-03-20T09:04:49.930Z,37.30
2018-03-20T09:07:17.724Z,17.33
2018-03-20T09:09:45.251Z,23.10
2018-03-20T09:12:12.879Z,23.97
2018-03-20T09:14:40.554Z,21.97
2018-03-20T09:17:08.168Z,29.03
2018-03-20T09:19:35.678Z,22.03
2018-03-20T09:22:03.206Z,25.07
2018-03-20T09:24:31.088Z,29.27
2018-03-20T09:26:58.923Z,26.97
2018-03-20T09:29:26.457Z,21.00
2018-03-20T09:31:54.027Z,17.77
2018-03-20T09:34:21.551Z,22.03
2018-03-20T09:36:49.359Z,24.60
2018-03-20T09:39:16.973Z,23.40
2018-03-20T09:41:45.056Z,24.40
2018-03-20T09:44:12.578Z,34.27
2018-03-20T09:46:40.189Z,31.20
2018-03-20T09:49:07.763Z,23.90
2018-03-20T09:51:35.253Z,24.43
2018-03-20T09:54:02.816Z,29.30
2018-03-20T09:56:30.375Z,28.07
2018-03-20T09:58:57.912Z,28.00
2018-03-20T10:01:25.455Z,27.13
2018-03-20T10:03:53.054Z,23.30
2018-03-20T10:06:20.610Z,29.63
2018-03-20T10:08:48.189Z,26.33
2018-03-20T10:11:15.763Z,28.97
2018-03-20T10:13:43.420Z,24.03
2018-03-20T10:16:11.198Z,29.73
2018-03-20T10:18:38.713Z,30.00
2018-03-20T10:21:06.251Z,26.97
2018-03-20T10:23:33.791Z,26.70
2018-03-20T10:26:01.331Z,26.20
2018-03-20T10:28:28.918Z,25.37
2018-03-20T10:30:56.614Z,26.67
2018-03-20T10:33:24.161Z,31.00
2018-03-20T10:35:51.719Z,28.53
2018-03-20T10:38:19.433Z,29.50
2018-03-20T10:40:46.996Z,30.77
2018-03-20T10:43:14.568Z,30.03
2018-03-20T10:45:42.120Z,31.87
2018-03-20T10:48:09.652Z,33.70
2018-03-20T10:50:37.276Z,30.93
2018-03-20T10:53:04.739Z,28.43
2018-03-20T10:55:32.266Z,25.77
2018-03-20T10:57:59.784Z,35.40
2018-03-20T11:03:31.017Z,43.00
2018-03-20T11:05:58.630Z,35.47
2018-03-20T11:08:26.176Z,35.37
2018-03-20T11:10:53.732Z,24.97
2018-03-20T11:13:21.505Z,30.53
2018-03-20T11:15:49.376Z,35.40
2018-03-20T11:18:16.887Z,27.23
2018-03-20T11:20:44.401Z,30.60
2018-03-20T11:23:12.269Z,26.50
2018-03-20T11:25:39.807Z,26.90
2018-03-20T11:28:07.390Z,34.43
2018-03-20T11:30:34.956Z,24.80
2018-03-20T11:33:02.476Z,28.83
2018-03-20T11:35:30.081Z,24.87
2018-03-20T11:37:57.579Z,25.90
2018-03-20T11:40:25.134Z,30.73
2018-03-20T11:42:52.656Z,27.17
2018-03-20T11:45:20.167Z,27.67
2018-03-20T11:47:47.696Z,30.93
2018-03-20T11:50:15.215Z,32.60
2018-03-20T11:52:42.769Z,29.90
2018-03-20T11:55:10.276Z,27.50
2018-03-20T11:57:37.826Z,29.73
2018-03-20T12:00:05.391Z,35.57
2018-03-20T12:02:32.921Z,30.00
2018-03-20T12:05:00.471Z,34.37
2018-03-20T12:07:27.994Z,31.67
2018-03-20T12:09:55.553Z,31.30
2018-03-20T12:12:23.087Z,30.43
2018-03-20T12:14:50.594Z,37.00
2018-03-20T12:17:18.123Z,29.00
2018-03-20T12:19:45.718Z,29.37
2018-03-20T12:22:13.295Z,30.03
2018-03-20T12:24:40.832Z,38.53
2018-03-20T12:27:08.357Z,31.77
2018-03-20T12:29:35.930Z,28.37
2018-03-20T12:32:03.462Z,33.23
2018-03-20T12:34:31.049Z,27.60
2018-03-20T12:36:58.581Z,30.80
2018-03-20T12:39:26.104Z,25.60
2018-03-20T12:41:53.692Z,29.43
2018-03-20T12:44:21.472Z,25.90
2018-03-20T12:46:49.304Z,28.43
2018-03-20T12:49:16.909Z,30.43
2018-03-20T12:51:44.523Z,25.03
2018-03-20T12:54:12.052Z,29.70
2018-03-20T12:56:39.610Z,27.73
2018-03-20T12:59:07.168Z,27.10
2018-03-20T13:01:34.733Z,30.00
2018-03-20T13:04:02.385Z,28.13
2018-03-20T13:06:29.953Z,38.23
2018-03-20T13:08:57.522Z,27.40
2018-03-20T13:11:25.198Z,26.10
2018-03-20T13:13:52.879Z,34.67
2018-03-20T13:16:20.419Z,27.20
2018-03-20T13:18:48.082Z,24.60
2018-03-20T13:21:15.654Z,31.83
2018-03-20T13:23:43.239Z,24.80
2018-03-20T13:26:10.822Z,29.87
2018-03-20T13:28:38.349Z,25.93
2018-03-20T13:31:05.940Z,25.20
2018-03-20T13:33:33.469Z,25.37
2018-03-20T13:36:01.931Z,25.80
2018-03-20T13:38:29.522Z,27.47
2018-03-20T13:40:57.101Z,25.93
2018-03-20T13:43:24.677Z,28.93
2018-03-20T13:45:52.262Z,25.90
2018-03-20T13:48:19.800Z,21.70
2018-03-20T13:50:47.372Z,23.03
2018-03-20T13:53:18.725Z,47.13
2018-03-20T13:55:46.278Z,25.43
2018-03-20T13:58:13.839Z,20.80
2018-03-20T14:00:41.384Z,27.87
2018-03-20T14:03:09.242Z,20.50
2018-03-20T14:05:36.841Z,20.50
2018-03-20T14:08:04.481Z,21.67
2018-03-20T14:10:32.017Z,25.90
2018-03-20T14:12:59.543Z,22.10
2018-03-20T14:15:27.080Z,22.43
2018-03-20T14:17:54.625Z,21.83
2018-03-20T14:20:22.572Z,22.70
2018-03-20T14:22:50.085Z,26.50
2018-03-20T14:25:17.611Z,23.10
2018-03-20T14:27:45.181Z,23.20
2018-03-20T14:30:13.025Z,23.17
2018-03-20T14:32:40.576Z,23.87
2018-03-20T14:35:08.444Z,22.87
2018-03-20T14:37:35.957Z,19.67
2018-03-20T14:40:03.608Z,19.47
2018-03-20T14:42:31.177Z,27.50
2018-03-20T14:44:58.708Z,23.20
2018-03-20T14:47:26.237Z,19.80
2018-03-20T14:49:53.790Z,21.53
2018-03-20T14:52:21.573Z,15.83
2018-03-20T14:54:49.088Z,18.60
2018-03-20T14:57:16.656Z,16.00
2018-03-20T14:59:44.261Z,15.50
2018-03-20T15:02:11.920Z,16.50
2018-03-20T15:04:39.569Z,22.80
2018-03-20T15:07:08.175Z,13.70
2018-03-20T15:09:35.724Z,14.90
2018-03-20T15:12:03.302Z,13.60
2018-03-20T15:14:31.115Z,18.13
2018-03-20T15:16:59.035Z,13.93
2018-03-20T15:19:26.793Z,13.67
2018-03-20T15:21:55.987Z,13.10
2018-03-20T15:24:23.667Z,15.93
2018-03-20T15:26:51.543Z,14.63
2018-03-20T15:29:23.802Z,12.10
2018-03-20T15:31:51.406Z,17.27
2018-03-20T15:34:19.184Z,19.10
2018-03-20T15:36:47.102Z,10.83
2018-03-20T15:39:15.566Z,12.57
2018-03-20T15:41:43.755Z,10.10
2018-03-20T15:44:11.546Z,22.27
2018-03-20T15:46:39.267Z,13.00
2018-03-20T15:49:06.775Z,12.57
2018-03-20T15:51:34.328Z,13.50
2018-03-20T15:54:01.929Z,13.40
2018-03-20T15:56:29.511Z,19.13
2018-03-20T15:58:57.051Z,12.73
2018-03-20T16:01:24.596Z,11.27
2018-03-20T16:03:52.328Z,9.17
2018-03-20T16:06:19.917Z,10.73
2018-03-20T16:08:47.403Z,12.40
2018-03-20T16:11:14.920Z,15.60
2018-03-20T16:13:42.660Z,12.23
2018-03-20T16:16:10.214Z,10.80
2018-03-20T16:18:39.223Z,9.03
2018-03-20T16:21:06.825Z,15.63
2018-03-20T16:23:34.411Z,9.60
2018-03-20T16:26:02.115Z,9.83
2018-03-20T16:28:29.740Z,9.20
2018-03-20T16:30:57.272Z,9.17
2018-03-20T16:33:24.833Z,11.97
2018-03-20T16:35:52.379Z,9.90
2018-03-20T16:38:20.015Z,12.17
2018-03-20T16:40:47.550Z,12.97
2018-03-20T16:43:15.105Z,13.10
2018-03-20T16:45:42.643Z,12.03
2018-03-20T16:48:10.211Z,10.80
2018-03-20T16:50:37.738Z,22.33
2018-03-20T16:53:05.329Z,27.30
2018-03-20T16:55:32.862Z,11.40
2018-03-20T16:58:00.574Z,12.50
2018-03-20T17:00:28.167Z,12.40
2018-03-20T17:02:55.680Z,15.17
2018-03-20T17:05:23.497Z,21.07
2018-03-20T17:07:51.514Z,13.93
2018-03-20T17:10:19.074Z,11.63
2018-03-20T17:12:46.569Z,9.53
2018-03-20T17:15:14.245Z,8.60
2018-03-20T17:17:41.776Z,9.60
2018-03-20T17:20:09.386Z,11.30
2018-03-20T17:22:36.971Z,14.53
2018-03-20T17:25:04.572Z,13.03
2018-03-20T17:27:33.309Z,12.77
2018-03-20T17:30:00.946Z,9.33
2018-03-20T17:32:28.463Z,10.93
2018-03-20T17:34:56.000Z,12.17
2018-03-20T17:37:23.631Z,8.70
2018-03-20T17:39:51.701Z,8.73
2018-03-20T17:42:19.417Z,14.33
2018-03-20T17:44:46.976Z,10.53
2018-03-20T17:47:14.689Z,10.17
2018-03-20T17:49:43.694Z,9.33
2018-03-20T17:52:11.340Z,11.83
2018-03-20T17:54:39.019Z,11.30
2018-03-20T17:57:06.855Z,8.60
2018-03-20T17:59:34.595Z,9.93
2018-03-20T18:02:02.265Z,10.70
2018-03-20T18:04:31.252Z,10.57
2018-03-20T18:06:59.429Z,13.00
2018-03-20T18:09:26.953Z,14.53
2018-03-20T18:11:54.607Z,9.17
2018-03-20T18:14:22.178Z,9.70
2018-03-20T18:16:49.751Z,11.40
2018-03-20T18:19:17.544Z,12.23
2018-03-20T18:21:45.058Z,9.53
2018-03-20T18:24:13.182Z,9.30
2018-03-20T18:26:40.786Z,9.30
2018-03-20T18:29:08.485Z,15.13
2018-03-20T18:31:36.071Z,8.83
2018-03-20T18:34:03.575Z,8.90
2018-03-20T18:36:31.477Z,9.50
2018-03-20T18:39:00.010Z,16.30
2018-03-20T18:41:28.550Z,13.17
2018-03-20T18:43:56.091Z,13.03
2018-03-20T18:46:23.821Z,12.00
2018-03-20T18:48:51.346Z,13.97
2018-03-20T18:51:18.872Z,14.93
2018-03-20T18:53:46.398Z,8.83
2018-03-20T18:56:14.002Z,17.47
2018-03-20T18:58:41.598Z,10.13
2018-03-20T19:01:09.185Z,9.73
2018-03-20T19:03:36.808Z,12.73
2018-03-20T19:06:04.370Z,13.00
2018-03-20T19:08:31.896Z,14.73
2018-03-20T19:10:59.720Z,10.50
2018-03-20T19:13:27.262Z,10.40
2018-03-20T19:15:54.860Z,12.43
2018-03-20T19:18:23.261Z,12.13
2018-03-20T19:20:50.798Z,9.37
2018-03-20T19:23:18.640Z,14.37
2018-03-20T19:25:46.634Z,12.23
2018-03-20T19:28:14.492Z,9.07
2018-03-20T19:30:42.216Z,11.80
2018-03-20T19:33:11.400Z,10.27
2018-03-20T19:35:40.364Z,15.40
2018-03-20T19:38:08.705Z,14.17
2018-03-20T19:40:37.085Z,25.30
2018-03-20T19:43:04.677Z,29.83
2018-03-20T19:45:32.195Z,12.80
2018-03-20T19:47:59.698Z,12.33
2018-03-20T19:50:27.231Z,10.63
2018-03-20T19:52:54.726Z,11.13
2018-03-20T19:55:22.679Z,11.00
2018-03-20T19:57:50.258Z,15.60
2018-03-20T20:00:18.109Z,11.40
2018-03-20T20:02:46.074Z,11.83
2018-03-20T20:05:13.644Z,13.50
2018-03-20T20:07:41.201Z,9.40
2018-03-20T20:10:08.793Z,16.83
2018-03-20T20:12:37.346Z,9.27
2018-03-20T20:15:08.941Z,9.67
2018-03-20T20:17:40.741Z,15.60
2018-03-20T20:20:17.496Z,11.40
2018-03-20T20:22:45.265Z,11.40
2018-03-20T20:25:17.901Z,12.50
2018-03-20T20:27:45.886Z,10.03
2018-03-20T20:30:13.818Z,12.53
2018-03-20T20:32:41.546Z,11.00
2018-03-20T20:35:09.632Z,15.77
2018-03-20T20:37:37.247Z,15.13
2018-03-20T20:40:09.058Z,10.03
2018-03-20T20:42:37.544Z,14.30
2018-03-20T20:45:07.082Z,12.70
2018-03-20T20:47:34.919Z,10.67
2018-03-20T20:50:02.480Z,9.43
2018-03-20T20:52:30.263Z,11.43
2018-03-20T20:54:57.804Z,11.27
2018-03-20T20:57:25.401Z,13.27
2018-03-20T20:59:52.925Z,17.40
2018-03-20T21:02:20.475Z,14.77
2018-03-20T21:04:48.140Z,12.93
2018-03-20T21:07:15.736Z,10.73
2018-03-20T21:09:43.519Z,10.23
2018-03-20T21:12:11.060Z,10.60
2018-03-20T21:14:38.585Z,10.10
2018-03-20T21:17:06.598Z,14.67
2018-03-20T21:19:34.132Z,16.97
2018-03-20T21:22:01.654Z,12.37
2018-03-20T21:24:29.170Z,15.23
2018-03-20T21:26:56.695Z,11.73
2018-03-20T21:29:24.691Z,12.13
2018-03-20T21:31:52.213Z,11.50
2018-03-20T21:34:19.838Z,12.00
2018-03-20T21:36:47.384Z,13.60
2018-03-20T21:39:14.925Z,13.83
2018-03-20T21:41:42.533Z,10.43
2018-03-20T21:44:10.206Z,12.63
2018-03-20T21:46:37.750Z,14.63
2018-03-20T21:49:05.528Z,19.17
2018-03-20T21:51:34.113Z,12.53
2018-03-20T21:54:01.657Z,11.40
2018-03-20T21:56:29.377Z,10.53
2018-03-20T21:58:57.851Z,11.40
2018-03-20T22:01:25.378Z,10.27
2018-03-20T22:03:53.035Z,11.03
2018-03-20T22:06:20.604Z,18.67
2018-03-20T22:08:48.116Z,12.37
2018-03-20T22:11:16.007Z,14.37
2018-03-20T22:13:43.570Z,12.53
2018-03-20T22:16:11.078Z,11.83
2018-03-20T22:18:38.666Z,11.50
2018-03-20T22:21:06.274Z,23.33
2018-03-20T22:23:34.632Z,13.60
2018-03-20T22:26:02.170Z,9.60
2018-03-20T22:28:30.063Z,12.20
2018-03-20T22:30:57.565Z,10.13
2018-03-20T22:33:25.104Z,13.23
2018-03-20T22:35:53.041Z,13.70
2018-03-20T22:38:20.712Z,15.43
2018-03-20T22:40:48.285Z,10.03
2018-03-20T22:43:15.826Z,15.00
2018-03-20T22:45:43.335Z,11.57
2018-03-20T22:48:10.876Z,13.10
2018-03-20T22:50:38.440Z,17.60
2018-03-20T22:53:06.035Z,9.87
2018-03-20T22:55:33.829Z,13.13
2018-03-20T22:58:01.403Z,11.10
2018-03-20T23:00:29.465Z,13.33
2018-03-20T23:02:57.038Z,16.33
2018-03-20T23:05:24.580Z,16.87
2018-03-20T23:07:52.097Z,16.97
2018-03-20T23:10:19.700Z,17.80
2018-03-20T23:12:47.274Z,16.97
2018-03-20T23:15:16.780Z,13.70
2018-03-20T23:17:44.342Z,10.43
2018-03-20T23:20:12.008Z,10.10
2018-03-20T23:22:39.557Z,11.17
2018-03-20T23:25:07.111Z,12.20
2018-03-20T23:27:34.631Z,13.23
2018-03-20T23:30:02.147Z,10.97
2018-03-20T23:32:29.774Z,11.93
2018-03-20T23:34:57.309Z,9.73
2018-03-20T23:37:24.825Z,12.03
2018-03-20T23:39:52.410Z,12.07
2018-03-20T23:42:20.058Z,14.53
2018-03-20T23:44:47.761Z,20.93
2018-03-20T23:47:15.326Z,11.83
2018-03-20T23:49:42.877Z,13.70
2018-03-20T23:52:10.477Z,14.53
2018-03-20T23:54:38.062Z,11.33
2018-03-20T23:57:05.562Z,13.00
2018-03-20T23:59:33.391Z,12.10
